Time;durP1;ratioP1;P1;durP2;ratioP2;P2;SDS_P1;SDS_P2;PMS_P1;PMS_P2;Temp;Humidity;BMP_temperature;BMP_pressure;BME280_temperature;BME280_humidity;BME280_pressure;Samples;Min_cycle;Max_cycle;Signal;HPM_P1;HPM_P2
2023/05/27 00:01:14;;;;;;;;;;;15.60;65.50;;;;;;5087533;28;19920;-71
2023/05/27 00:03:40;;;;;;;;;;;15.60;65.40;;;;;;5087791;28;19952;-71
2023/05/27 00:06:05;;;;;;;;;;;15.60;65.40;;;;;;5087659;28;19943;-71
2023/05/27 00:08:31;;;;;;;;;;;15.60;65.40;;;;;;5087659;28;19920;-71
2023/05/27 00:10:56;;;;;;;;;;;15.60;65.30;;;;;;5087897;28;20339;-73
2023/05/27 00:13:22;;;;;;;;;;;15.50;65.30;;;;;;5086531;28;19912;-74
2023/05/27 00:15:47;;;;;;;;;;;15.40;65.20;;;;;;5087745;28;19912;-73
2023/05/27 00:18:13;;;;;;;;;;;15.30;65.40;;;;;;5087667;28;20340;-73
2023/05/27 00:20:39;;;;;;;;;;;15.20;65.50;;;;;;5087684;28;19920;-73
2023/05/27 00:23:05;;;;;;;;;;;15.20;65.70;;;;;;5087600;28;19965;-74
2023/05/27 00:25:31;;;;;;;;;;;15.10;65.70;;;;;;5087623;28;20362;-74
2023/05/27 00:27:56;;;;;;;;;;;15.20;65.60;;;;;;5087385;28;20309;-74
2023/05/27 00:30:22;;;;;;;;;;;15.20;65.50;;;;;;5087518;28;20030;-74
2023/05/27 00:32:48;;;;;;;;;;;15.20;65.40;;;;;;5087692;28;20292;-73
2023/05/27 00:35:13;;;;;;;;;;;15.10;65.40;;;;;;5087689;28;19909;-74
2023/05/27 00:37:39;;;;;;;;;;;15.10;65.60;;;;;;5087596;28;19923;-74
2023/05/27 00:40:07;;;;;;;;;;;15.10;65.50;;;;;;5087613;28;20107;-74
2023/05/27 00:42:32;;;;;;;;;;;15.10;65.40;;;;;;5087460;28;19912;-74
2023/05/27 00:44:58;;;;;;;;;;;15.20;65.40;;;;;;5087547;28;19932;-74
2023/05/27 00:47:25;;;;;;;;;;;15.10;65.30;;;;;;5087421;28;19962;-74
2023/05/27 00:49:52;;;;;;;;;;;15.10;65.40;;;;;;5087425;28;20329;-73
2023/05/27 00:52:17;;;;;;;;;;;15.00;65.40;;;;;;5086254;28;20496;-74
2023/05/27 00:54:43;;;;;;;;;;;15.00;65.60;;;;;;5087487;28;19942;-73
2023/05/27 00:57:09;;;;;;;;;;;15.00;65.70;;;;;;5088354;28;20386;-74
2023/05/27 00:59:35;;;;;;;;;;;15.00;65.60;;;;;;5090895;28;19999;-74
2023/05/27 01:02:00;;;;;;;;;;;15.00;65.50;;;;;;5089423;28;19928;-73
2023/05/27 01:04:26;;;;;;;;;;;15.00;65.40;;;;;;5091114;28;19935;-73
2023/05/27 01:06:51;;;;;;;;;;;15.00;65.30;;;;;;5090909;28;19957;-73
2023/05/27 01:09:20;;;;;;;;;;;15.00;65.30;;;;;;5090853;28;19940;-73
2023/05/27 01:12:18;;;;;;;;;;;15.00;65.20;;;;;;5090811;28;19909;-74
2023/05/27 01:14:45;;;;;;;;;;;15.00;65.10;;;;;;5067267;28;19912;-74
2023/05/27 01:17:11;;;;;;;;;;;15.00;65.20;;;;;;5090718;28;19912;-73
2023/05/27 01:19:40;;;;;;;;;;;14.90;65.20;;;;;;5089405;28;19912;-74
2023/05/27 01:22:07;;;;;;;;;;;14.90;65.20;;;;;;5090710;28;19912;-74
2023/05/27 01:24:33;;;;;;;;;;;14.90;65.30;;;;;;5090640;28;19977;-74
2023/05/27 01:27:00;;;;;;;;;;;14.80;65.30;;;;;;5089483;28;19919;-74
2023/05/27 01:29:26;;;;;;;;;;;14.80;65.30;;;;;;5090645;28;20289;-73
2023/05/27 01:32:10;;;;;;;;;;;14.80;65.40;;;;;;5090503;28;20376;-73
2023/05/27 01:34:41;;;;;;;;;;;14.80;65.30;;;;;;5090616;28;20314;-73
2023/05/27 01:37:09;;;;;;;;;;;14.70;65.20;;;;;;5091036;28;19990;-73
2023/05/27 01:39:35;;;;;;;;;;;14.70;65.30;;;;;;5090450;28;19915;-73
2023/05/27 01:42:02;;;;;;;;;;;14.70;65.20;;;;;;5090293;28;19963;-74
2023/05/27 01:44:28;;;;;;;;;;;14.60;65.20;;;;;;5090198;28;19913;-74
2023/05/27 01:46:57;;;;;;;;;;;14.60;65.20;;;;;;5090343;28;19948;-73
2023/05/27 01:49:23;;;;;;;;;;;14.50;65.20;;;;;;5090053;28;20532;-74
2023/05/27 01:51:49;;;;;;;;;;;14.50;65.20;;;;;;5090084;28;19916;-73
2023/05/27 01:54:14;;;;;;;;;;;14.40;65.30;;;;;;5090132;28;19912;-74
2023/05/27 01:56:40;;;;;;;;;;;14.40;65.40;;;;;;5089891;28;20086;-74
2023/05/27 01:59:05;;;;;;;;;;;14.40;65.50;;;;;;5088866;28;20280;-73
2023/05/27 02:01:33;;;;;;;;;;;14.40;65.50;;;;;;5089625;28;19928;-74
2023/05/27 02:03:59;;;;;;;;;;;14.40;65.50;;;;;;5089903;28;19954;-73
2023/05/27 02:06:25;;;;;;;;;;;14.40;65.40;;;;;;5088630;28;19916;-74
2023/05/27 02:08:50;;;;;;;;;;;14.40;65.40;;;;;;5088635;28;20395;-74
2023/05/27 02:11:16;;;;;;;;;;;14.40;65.30;;;;;;5089829;28;19938;-74
2023/05/27 02:13:42;;;;;;;;;;;14.50;65.40;;;;;;5088310;28;19962;-75
2023/05/27 02:16:08;;;;;;;;;;;14.50;65.40;;;;;;5089748;28;20265;-75
2023/05/27 02:18:34;;;;;;;;;;;14.50;65.30;;;;;;5089819;28;19913;-74
2023/05/27 02:21:05;;;;;;;;;;;14.40;65.30;;;;;;5089741;28;19999;-75
2023/05/27 02:23:31;;;;;;;;;;;14.30;65.30;;;;;;5089579;28;19918;-74
2023/05/27 02:25:56;;;;;;;;;;;14.30;65.30;;;;;;5088234;28;20006;-74
2023/05/27 02:28:22;;;;;;;;;;;14.30;65.30;;;;;;5089375;28;19908;-74
2023/05/27 02:30:48;;;;;;;;;;;14.10;65.40;;;;;;5089434;28;19916;-75
2023/05/27 02:33:13;;;;;;;;;;;14.10;65.50;;;;;;5089403;28;19916;-74
2023/05/27 02:35:39;;;;;;;;;;;14.00;65.60;;;;;;5089511;28;20026;-74
2023/05/27 02:38:04;;;;;;;;;;;14.00;65.60;;;;;;5089174;28;19916;-75
2023/05/27 02:40:30;;;;;;;;;;;14.10;65.60;;;;;;5087827;28;20238;-74
2023/05/27 02:42:56;;;;;;;;;;;14.10;65.60;;;;;;5089263;28;19908;-75
2023/05/27 02:45:22;;;;;;;;;;;14.10;65.50;;;;;;5089200;28;19912;-74
2023/05/27 02:47:48;;;;;;;;;;;14.00;65.50;;;;;;5087697;28;19908;-74
2023/05/27 02:50:13;;;;;;;;;;;13.90;65.50;;;;;;5089074;28;19919;-74
2023/05/27 02:52:39;;;;;;;;;;;13.90;65.60;;;;;;5089006;28;19912;-74
2023/05/27 02:55:05;;;;;;;;;;;14.00;65.60;;;;;;5089065;28;19908;-74
2023/05/27 02:57:31;;;;;;;;;;;14.00;65.60;;;;;;5088899;28;19916;-74
2023/05/27 02:59:56;;;;;;;;;;;14.00;65.50;;;;;;5087831;28;20291;-74
2023/05/27 03:02:22;;;;;;;;;;;13.90;65.40;;;;;;5088608;28;19930;-75
2023/05/27 03:04:48;;;;;;;;;;;13.90;65.50;;;;;;5088596;28;20003;-75
2023/05/27 03:07:13;;;;;;;;;;;13.80;65.50;;;;;;5088635;28;19948;-74
2023/05/27 03:09:39;;;;;;;;;;;13.80;65.50;;;;;;5087346;28;20470;-74
2023/05/27 03:12:05;;;;;;;;;;;13.70;65.50;;;;;;5088699;28;19991;-74
2023/05/27 03:14:31;;;;;;;;;;;13.70;65.60;;;;;;5087147;28;19916;-74
2023/05/27 03:16:56;;;;;;;;;;;13.60;65.60;;;;;;5088548;28;19919;-74
2023/05/27 03:19:22;;;;;;;;;;;13.70;65.60;;;;;;5088275;28;20010;-74
2023/05/27 03:21:48;;;;;;;;;;;13.60;65.50;;;;;;5088330;28;19920;-74
2023/05/27 03:24:13;;;;;;;;;;;13.70;65.50;;;;;;5088549;28;19948;-74
2023/05/27 03:26:39;;;;;;;;;;;13.70;65.50;;;;;;5088619;28;20395;-74
2023/05/27 03:29:05;;;;;;;;;;;13.60;65.30;;;;;;5088374;28;19939;-74
2023/05/27 03:31:31;;;;;;;;;;;13.50;65.40;;;;;;5088751;28;19945;-74
2023/05/27 03:33:56;;;;;;;;;;;13.50;65.50;;;;;;5087054;28;19919;-74
2023/05/27 03:36:22;;;;;;;;;;;13.50;65.60;;;;;;5088243;28;19912;-75
2023/05/27 03:38:47;;;;;;;;;;;13.50;65.60;;;;;;5086827;28;20386;-75
2023/05/27 03:41:13;;;;;;;;;;;13.50;65.50;;;;;;5088133;28;19959;-74
2023/05/27 03:43:38;;;;;;;;;;;13.60;65.50;;;;;;5088263;28;20318;-74
2023/05/27 03:46:04;;;;;;;;;;;13.60;65.50;;;;;;5086725;28;20314;-74
2023/05/27 03:48:30;;;;;;;;;;;13.60;65.40;;;;;;5087907;28;19912;-74
2023/05/27 03:50:55;;;;;;;;;;;13.60;65.40;;;;;;5088473;28;19973;-75
2023/05/27 03:53:21;;;;;;;;;;;13.50;65.30;;;;;;5088125;28;19916;-74
2023/05/27 03:55:46;;;;;;;;;;;13.50;65.40;;;;;;5088041;28;20292;-74
2023/05/27 03:58:13;;;;;;;;;;;13.50;65.40;;;;;;5087870;28;19916;-74
2023/05/27 04:00:41;;;;;;;;;;;13.40;65.40;;;;;;5087985;28;19912;-74
2023/05/27 04:03:08;;;;;;;;;;;13.40;65.50;;;;;;5088010;28;20310;-74
2023/05/27 04:05:33;;;;;;;;;;;13.40;65.50;;;;;;5087978;28;19983;-74
2023/05/27 04:07:59;;;;;;;;;;;13.40;65.50;;;;;;5087856;28;19999;-74
2023/05/27 04:10:25;;;;;;;;;;;13.40;65.50;;;;;;5087903;28;20414;-74
2023/05/27 04:12:51;;;;;;;;;;;13.30;65.40;;;;;;5088019;28;19920;-75
2023/05/27 04:15:16;;;;;;;;;;;13.30;65.50;;;;;;5087760;28;20376;-74
2023/05/27 04:17:42;;;;;;;;;;;13.30;65.60;;;;;;5087784;28;19913;-74
2023/05/27 04:20:13;;;;;;;;;;;13.20;65.60;;;;;;5087926;28;19962;-74
2023/05/27 04:22:40;;;;;;;;;;;13.20;65.60;;;;;;5087735;28;19928;-74
2023/05/27 04:25:06;;;;;;;;;;;13.20;65.60;;;;;;5087912;28;20279;-74
2023/05/27 04:27:31;;;;;;;;;;;13.20;65.50;;;;;;5087696;28;20023;-74
2023/05/27 04:29:57;;;;;;;;;;;13.20;65.60;;;;;;5087754;28;19912;-74
2023/05/27 04:32:23;;;;;;;;;;;13.30;66.10;;;;;;5089195;28;19955;-74
2023/05/27 04:34:49;;;;;;;;;;;13.30;65.50;;;;;;5090391;28;20002;-74
2023/05/27 04:37:16;;;;;;;;;;;13.40;65.50;;;;;;5090469;28;20402;-74
2023/05/27 04:39:45;;;;;;;;;;;13.40;65.60;;;;;;5091542;28;19924;-74
2023/05/27 04:42:12;;;;;;;;;;;13.40;65.50;;;;;;5091458;28;19974;-75
2023/05/27 04:44:38;;;;;;;;;;;13.40;65.50;;;;;;5091448;28;19908;-74
2023/05/27 04:47:04;;;;;;;;;;;13.40;65.60;;;;;;5091367;28;19944;-74
2023/05/27 04:49:30;;;;;;;;;;;13.50;65.70;;;;;;5091168;28;19910;-75
2023/05/27 04:51:55;;;;;;;;;;;13.50;65.70;;;;;;5072983;28;19939;-74
2023/05/27 04:54:21;;;;;;;;;;;13.50;65.60;;;;;;5091221;28;19908;-74
2023/05/27 04:56:47;;;;;;;;;;;13.60;65.60;;;;;;5089876;28;19912;-74
2023/05/27 04:59:16;;;;;;;;;;;13.60;65.50;;;;;;5091022;28;19916;-75
2023/05/27 05:02:09;;;;;;;;;;;13.70;66.00;;;;;;5090753;28;19920;-74
2023/05/27 05:04:38;;;;;;;;;;;13.60;65.50;;;;;;5091043;28;20044;-74
2023/05/27 05:07:03;;;;;;;;;;;13.60;65.60;;;;;;5090966;28;20372;-75
2023/05/27 05:09:29;;;;;;;;;;;13.70;65.70;;;;;;5090962;28;19923;-74
2023/05/27 05:11:55;;;;;;;;;;;13.70;65.60;;;;;;5091043;28;19930;-74
2023/05/27 05:14:20;;;;;;;;;;;13.80;65.60;;;;;;5090980;28;19912;-75
2023/05/27 05:16:46;;;;;;;;;;;13.80;65.60;;;;;;5090828;28;19912;-74
2023/05/27 05:19:12;;;;;;;;;;;13.90;65.60;;;;;;5090788;28;19916;-74
2023/05/27 05:21:38;;;;;;;;;;;13.90;65.50;;;;;;5090701;28;19912;-75
2023/05/27 05:24:04;;;;;;;;;;;13.90;65.50;;;;;;5090657;28;19998;-75
2023/05/27 05:26:29;;;;;;;;;;;14.00;65.60;;;;;;5090630;28;19965;-75
2023/05/27 05:28:55;;;;;;;;;;;14.00;65.70;;;;;;5089752;28;19912;-74
2023/05/27 05:31:20;;;;;;;;;;;14.00;65.60;;;;;;5091409;28;19916;-74
2023/05/27 05:33:46;;;;;;;;;;;14.00;65.60;;;;;;5091008;28;19992;-74
2023/05/27 05:36:12;;;;;;;;;;;14.00;65.70;;;;;;5090568;28;20354;-74
2023/05/27 05:38:37;;;;;;;;;;;14.10;65.80;;;;;;5090262;28;19919;-74
2023/05/27 05:41:03;;;;;;;;;;;14.10;65.70;;;;;;5090322;28;19920;-74
2023/05/27 05:43:29;;;;;;;;;;;14.20;65.70;;;;;;5089895;28;19908;-74
2023/05/27 05:45:54;;;;;;;;;;;14.20;65.70;;;;;;5088623;28;20364;-74
2023/05/27 05:48:20;;;;;;;;;;;14.30;65.80;;;;;;5090157;28;20299;-74
2023/05/27 05:50:45;;;;;;;;;;;14.30;65.70;;;;;;5090225;28;19909;-74
2023/05/27 05:53:11;;;;;;;;;;;14.40;65.90;;;;;;5090195;28;19930;-73
2023/05/27 05:55:37;;;;;;;;;;;14.90;66.60;;;;;;5089951;28;19926;-74
2023/05/27 05:58:02;;;;;;;;;;;16.50;66.30;;;;;;5088729;28;20276;-74
2023/05/27 06:00:28;;;;;;;;;;;18.20;64.90;;;;;;5088575;28;19916;-74
2023/05/27 06:02:53;;;;;;;;;;;19.70;63.50;;;;;;5089609;28;19927;-75
2023/05/27 06:05:20;;;;;;;;;;;20.50;62.40;;;;;;5089520;28;19925;-76
2023/05/27 06:07:46;;;;;;;;;;;21.30;62.20;;;;;;5089621;28;19909;-75
2023/05/27 06:10:12;;;;;;;;;;;22.40;62.00;;;;;;5089602;28;19923;-75
2023/05/27 06:12:37;;;;;;;;;;;23.30;61.50;;;;;;5089719;28;19919;-75
2023/05/27 06:15:03;;;;;;;;;;;24.00;61.00;;;;;;5089619;28;20452;-74
2023/05/27 06:17:29;;;;;;;;;;;24.70;60.60;;;;;;5089465;28;20337;-74
2023/05/27 06:19:54;;;;;;;;;;;25.10;60.50;;;;;;5089536;28;20007;-75
2023/05/27 06:22:20;;;;;;;;;;;25.50;60.80;;;;;;5089342;28;19924;-75
2023/05/27 06:24:45;;;;;;;;;;;25.90;60.70;;;;;;5089325;28;19958;-74
2023/05/27 06:27:11;;;;;;;;;;;26.30;60.80;;;;;;5089024;28;19969;-75
2023/05/27 06:29:37;;;;;;;;;;;26.60;60.90;;;;;;5089040;28;19960;-74
2023/05/27 06:32:02;;;;;;;;;;;26.70;61.20;;;;;;5089158;28;19951;-75
2023/05/27 06:34:28;;;;;;;;;;;26.90;61.70;;;;;;5089105;28;20429;-76
2023/05/27 06:36:53;;;;;;;;;;;27.30;61.60;;;;;;5089170;28;20434;-75
2023/05/27 06:39:19;;;;;;;;;;;27.80;61.80;;;;;;5089112;28;19923;-75
2023/05/27 06:41:45;;;;;;;;;;;28.30;61.80;;;;;;5089065;28;19916;-75
2023/05/27 06:44:10;;;;;;;;;;;28.70;61.70;;;;;;5070801;28;19923;-75
2023/05/27 06:46:36;;;;;;;;;;;29.10;61.40;;;;;;5089111;28;19912;-75
2023/05/27 06:49:01;;;;;;;;;;;29.40;61.10;;;;;;5088856;28;19912;-75
2023/05/27 06:51:27;;;;;;;;;;;29.50;60.70;;;;;;5088890;28;19916;-75
2023/05/27 06:53:52;;;;;;;;;;;29.70;60.80;;;;;;5088724;28;20015;-75
2023/05/27 06:56:18;;;;;;;;;;;29.80;61.20;;;;;;5087953;28;20286;-75
2023/05/27 06:58:45;;;;;;;;;;;29.70;61.00;;;;;;5088455;28;20053;-75
2023/05/27 07:01:10;;;;;;;;;;;29.80;60.90;;;;;;5088445;28;19920;-72
2023/05/27 07:03:36;;;;;;;;;;;29.70;60.40;;;;;;5088570;28;20298;-74
2023/05/27 07:06:01;;;;;;;;;;;29.10;60.90;;;;;;5087388;28;20364;-75
2023/05/27 07:08:27;;;;;;;;;;;28.90;61.70;;;;;;5089037;28;20287;-75
2023/05/27 07:10:53;;;;;;;;;;;28.50;61.80;;;;;;5088345;28;20023;-74
2023/05/27 07:13:18;;;;;;;;;;;28.50;62.40;;;;;;5088463;28;20439;-74
2023/05/27 07:15:44;;;;;;;;;;;29.00;62.50;;;;;;5088258;28;19977;-75
2023/05/27 07:18:09;;;;;;;;;;;29.50;62.30;;;;;;5088115;28;20015;-75
2023/05/27 07:20:35;;;;;;;;;;;30.10;62.40;;;;;;5088254;28;19938;-75
2023/05/27 07:23:01;;;;;;;;;;;30.60;62.70;;;;;;5088130;28;19969;-76
2023/05/27 07:25:26;;;;;;;;;;;31.30;62.80;;;;;;5088005;28;19920;-75
2023/05/27 07:27:52;;;;;;;;;;;31.90;62.70;;;;;;5087923;28;19916;-75
2023/05/27 07:30:18;;;;;;;;;;;32.30;62.60;;;;;;5087959;28;20349;-75
2023/05/27 07:32:43;;;;;;;;;;;32.50;62.50;;;;;;5087913;28;19916;-75
2023/05/27 07:35:09;;;;;;;;;;;32.90;62.90;;;;;;5087972;28;20360;-75
2023/05/27 07:37:34;;;;;;;;;;;32.80;63.00;;;;;;5087819;28;19980;-76
2023/05/27 07:40:00;;;;;;;;;;;32.40;63.60;;;;;;5087997;28;19919;-75
2023/05/27 07:42:26;;;;;;;;;;;32.40;64.10;;;;;;5087917;28;19956;-75
2023/05/27 07:44:51;;;;;;;;;;;32.40;64.70;;;;;;5087781;28;19919;-75
2023/05/27 07:47:17;;;;;;;;;;;32.50;65.00;;;;;;5087731;28;20005;-76
2023/05/27 07:49:42;;;;;;;;;;;32.50;65.00;;;;;;5086545;28;20535;-75
2023/05/27 07:52:08;;;;;;;;;;;32.60;65.30;;;;;;5088060;28;20093;-76
2023/05/27 07:54:33;;;;;;;;;;;32.90;65.10;;;;;;5088274;28;20470;-75
2023/05/27 07:56:59;;;;;;;;;;;33.30;64.80;;;;;;5087331;28;19918;-75
2023/05/27 07:59:25;;;;;;;;;;;33.60;64.40;;;;;;5087152;28;20057;-75
2023/05/27 08:01:50;;;;;;;;;;;33.90;64.60;;;;;;5086396;28;19935;-76
2023/05/27 08:04:16;;;;;;;;;;;34.20;64.50;;;;;;5086233;28;20433;-76
2023/05/27 08:06:42;;;;;;;;;;;34.30;64.90;;;;;;5088520;28;19912;-75
2023/05/27 08:09:08;;;;;;;;;;;34.40;65.20;;;;;;5091475;28;20002;-73
2023/05/27 08:11:33;;;;;;;;;;;34.40;64.90;;;;;;5091431;28;19935;-75
2023/05/27 08:13:59;;;;;;;;;;;33.90;65.50;;;;;;5091440;28;19912;-75
2023/05/27 08:16:25;;;;;;;;;;;33.70;66.30;;;;;;5091211;28;20017;-75
2023/05/27 08:18:50;;;;;;;;;;;34.00;66.30;;;;;;5091266;28;20329;-76
2023/05/27 08:21:16;;;;;;;;;;;34.30;66.30;;;;;;5091163;28;19920;-75
2023/05/27 08:23:42;;;;;;;;;;;34.30;66.40;;;;;;5091184;28;19912;-75
2023/05/27 08:26:08;;;;;;;;;;;34.40;67.10;;;;;;5090136;28;19926;-73
2023/05/27 08:28:36;;;;;;;;;;;34.50;67.10;;;;;;5090977;28;19908;-75
2023/05/27 08:31:05;;;;;;;;;;;34.40;67.30;;;;;;5091080;28;19954;-74
2023/05/27 08:33:30;;;;;;;;;;;34.70;68.00;;;;;;5091190;28;20280;-74
2023/05/27 08:35:56;;;;;;;;;;;35.10;67.80;;;;;;5090975;28;19939;-74
2023/05/27 08:38:21;;;;;;;;;;;35.50;67.60;;;;;;5090737;28;20005;-74
2023/05/27 08:40:47;;;;;;;;;;;35.50;67.30;;;;;;5090680;28;19916;-75
2023/05/27 08:43:13;;;;;;;;;;;35.50;67.70;;;;;;5090819;28;19908;-75
2023/05/27 08:45:40;;;;;;;;;;;35.70;67.40;;;;;;5083921;28;19912;-76
2023/05/27 08:48:09;;;;;;;;;;;36.00;67.70;;;;;;5091977;28;19922;-75
2023/05/27 08:50:35;;;;;;;;;;;36.10;67.20;;;;;;5087857;28;19916;-76
2023/05/27 08:53:02;;;;;;;;;;;36.10;67.00;;;;;;5091371;28;19926;-75
2023/05/27 08:55:28;;;;;;;;;;;36.30;67.00;;;;;;5089680;28;19923;-75
2023/05/27 08:57:55;;;;;;;;;;;36.10;67.20;;;;;;5092011;28;20320;-76
2023/05/27 09:00:21;;;;;;;;;;;35.70;68.00;;;;;;5091633;28;19917;-76
2023/05/27 09:02:46;;;;;;;;;;;35.90;68.50;;;;;;5091276;28;19920;-76
2023/05/27 09:05:13;;;;;;;;;;;36.30;68.50;;;;;;5091582;28;20003;-76
2023/05/27 09:07:39;;;;;;;;;;;36.30;67.90;;;;;;5091213;28;20280;-76
2023/05/27 09:10:06;;;;;;;;;;;36.00;68.40;;;;;;5090891;28;19916;-77
2023/05/27 09:12:32;;;;;;;;;;;36.00;69.00;;;;;;5091525;28;19916;-67
2023/05/27 09:14:58;;;;;;;;;;;36.10;69.00;;;;;;5091665;28;19955;-76
2023/05/27 09:17:24;;;;;;;;;;;36.20;68.60;;;;;;5089886;28;19915;-76
2023/05/27 09:19:53;;;;;;;;;;;36.30;68.60;;;;;;5088331;28;20286;-76
2023/05/27 09:22:22;;;;;;;;;;;36.20;69.20;;;;;;5091671;28;20408;-76
2023/05/27 09:24:48;;;;;;;;;;;36.40;69.20;;;;;;5090758;28;19912;-76
2023/05/27 09:27:14;;;;;;;;;;;36.70;69.60;;;;;;5091251;28;19920;-76
2023/05/27 09:29:43;;;;;;;;;;;37.10;69.40;;;;;;5091327;28;19958;-76
2023/05/27 09:32:11;;;;;;;;;;;37.20;68.90;;;;;;5085782;28;19912;-76
2023/05/27 09:34:40;;;;;;;;;;;37.40;69.30;;;;;;5090771;28;20287;-75
2023/05/27 09:37:12;;;;;;;;;;;37.60;68.70;;;;;;5090528;28;20364;-76
2023/05/27 09:39:38;;;;;;;;;;;37.10;68.70;;;;;;5090838;28;19908;-76
2023/05/27 09:42:04;;;;;;;;;;;37.00;69.70;;;;;;5090940;28;19916;-76
2023/05/27 09:44:36;;;;;;;;;;;37.20;69.80;;;;;;5090762;28;19914;-76
2023/05/27 09:47:03;;;;;;;;;;;37.00;69.10;;;;;;5091006;28;19954;-76
2023/05/27 09:49:29;;;;;;;;;;;36.70;68.60;;;;;;5090903;28;19995;-76
2023/05/27 09:51:57;;;;;;;;;;;36.70;68.50;;;;;;5091049;28;20325;-75
2023/05/27 09:54:22;;;;;;;;;;;36.50;68.60;;;;;;5090103;28;19965;-75
2023/05/27 09:56:49;;;;;;;;;;;36.40;68.70;;;;;;5090384;28;19955;-74
2023/05/27 09:59:14;;;;;;;;;;;36.50;68.70;;;;;;5090564;28;19908;-76
2023/05/27 10:01:40;;;;;;;;;;;36.70;69.30;;;;;;5090008;28;19946;-75
2023/05/27 10:04:06;;;;;;;;;;;37.10;69.20;;;;;;5090537;28;19946;-74
2023/05/27 10:06:32;;;;;;;;;;;37.20;69.10;;;;;;5090659;28;20019;-75
2023/05/27 10:08:58;;;;;;;;;;;37.40;69.90;;;;;;5090387;28;19912;-77
2023/05/27 10:11:26;;;;;;;;;;;37.80;69.70;;;;;;5089101;28;19926;-75
2023/05/27 10:13:52;;;;;;;;;;;38.40;70.20;;;;;;5090335;28;19916;-76
2023/05/27 10:16:25;;;;;;;;;;;39.10;69.70;;;;;;5089848;28;20264;-77
2023/05/27 10:18:54;;;;;;;;;;;39.60;69.00;;;;;;5089919;28;19989;-78
2023/05/27 10:21:20;;;;;;;;;;;39.90;69.20;;;;;;5090075;28;20010;-77
2023/05/27 10:24:12;;;;;;;;;;;39.90;69.00;;;;;;5089657;28;19959;-77
2023/05/27 10:26:41;;;;;;;;;;;39.90;69.40;;;;;;5087922;28;19908;-77
2023/05/27 10:29:10;;;;;;;;;;;39.30;68.80;;;;;;5089151;28;19908;-76
2023/05/27 10:31:43;;;;;;;;;;;38.20;68.30;;;;;;5089141;28;20019;-76
2023/05/27 10:34:08;;;;;;;;;;;36.50;68.40;;;;;;5089819;28;19908;-78
2023/05/27 10:36:36;;;;;;;;;;;35.00;68.80;;;;;;5088293;28;19919;-76
2023/05/27 10:39:06;;;;;;;;;;;33.70;69.30;;;;;;5089304;28;20268;-75
2023/05/27 10:41:41;;;;;;;;;;;32.70;69.60;;;;;;5089215;28;19971;-76
2023/05/27 10:44:07;;;;;;;;;;;31.80;69.60;;;;;;5089475;28;19984;-75
2023/05/27 10:46:43;;;;;;;;;;;31.30;69.80;;;;;;5089818;28;20272;-77
2023/05/27 10:49:25;;;;;;;;;;;30.90;69.30;;;;;;5088529;28;19944;-77
2023/05/27 10:51:51;;;;;;;;;;;30.50;69.20;;;;;;5089436;28;19948;-77
2023/05/27 10:54:17;;;;;;;;;;;29.80;69.00;;;;;;5089855;28;20389;-75
2023/05/27 10:56:53;;;;;;;;;;;29.30;69.10;;;;;;5089217;28;20233;-75
2023/05/27 10:59:22;;;;;;;;;;;28.70;69.00;;;;;;5088892;28;19922;-78
2023/05/27 11:01:51;;;;;;;;;;;28.20;69.30;;;;;;5087824;28;19956;-75
2023/05/27 11:04:16;;;;;;;;;;;27.80;69.30;;;;;;5088786;28;19972;-76
2023/05/27 11:06:42;;;;;;;;;;;27.60;69.50;;;;;;5088963;28;20408;-76
2023/05/27 11:09:09;;;;;;;;;;;27.60;69.30;;;;;;5087255;28;20000;-75
2023/05/27 11:11:36;;;;;;;;;;;27.60;69.10;;;;;;5089033;28;19908;-75
2023/05/27 11:14:02;;;;;;;;;;;27.70;68.90;;;;;;5089347;28;20034;-77
2023/05/27 11:16:27;;;;;;;;;;;27.80;68.80;;;;;;5088008;28;19963;-76
2023/05/27 11:18:53;;;;;;;;;;;28.00;69.00;;;;;;5088340;28;19912;-76
2023/05/27 11:21:19;;;;;;;;;;;28.60;69.40;;;;;;5089088;28;20387;-75
2023/05/27 11:23:48;;;;;;;;;;;29.50;69.80;;;;;;5088272;28;19924;-78
2023/05/27 11:26:25;;;;;;;;;;;30.20;69.30;;;;;;5088697;28;19908;-76
2023/05/27 11:28:52;;;;;;;;;;;30.80;68.80;;;;;;5088866;28;20312;-76
2023/05/27 11:31:19;;;;;;;;;;;31.20;68.60;;;;;;5088286;28;19909;-77
2023/05/27 11:33:46;;;;;;;;;;;31.40;68.20;;;;;;5087887;28;19961;-77
2023/05/27 11:36:13;;;;;;;;;;;31.30;68.70;;;;;;5088450;28;19998;-78
2023/05/27 11:38:48;;;;;;;;;;;31.30;68.30;;;;;;5088383;28;20242;-77
2023/05/27 11:41:14;;;;;;;;;;;31.50;68.70;;;;;;5087976;28;19922;-78
2023/05/27 11:43:54;;;;;;;;;;;32.30;69.00;;;;;;5088118;28;20565;-75
2023/05/27 11:46:20;;;;;;;;;;;32.80;68.60;;;;;;5088329;28;20015;-77
2023/05/27 11:48:46;;;;;;;;;;;33.00;68.40;;;;;;5088381;28;20003;-77
2023/05/27 11:51:12;;;;;;;;;;;32.90;68.30;;;;;;5087358;28;19918;-77
2023/05/27 11:53:38;;;;;;;;;;;32.70;67.90;;;;;;5087942;28;19913;-76
2023/05/27 11:56:04;;;;;;;;;;;32.20;67.40;;;;;;5087451;28;19911;-77
2023/05/27 11:58:30;;;;;;;;;;;31.60;67.60;;;;;;5087782;28;19930;-77
2023/05/27 12:00:55;;;;;;;;;;;31.20;67.90;;;;;;5088059;28;19966;-78
2023/05/27 12:03:21;;;;;;;;;;;31.10;67.90;;;;;;5096863;28;19924;-78
2023/05/27 12:05:49;;;;;;;;;;;31.00;67.90;;;;;;5093499;28;20209;-76
2023/05/27 12:08:15;;;;;;;;;;;30.90;67.80;;;;;;5092150;28;20366;-77
2023/05/27 12:10:40;;;;;;;;;;;30.90;67.50;;;;;;5097334;28;19924;-77
2023/05/27 12:13:06;;;;;;;;;;;30.70;67.40;;;;;;5097047;28;20466;-77
2023/05/27 12:15:32;;;;;;;;;;;30.20;67.30;;;;;;5089807;28;19912;-77
2023/05/27 12:17:57;;;;;;;;;;;29.80;67.80;;;;;;5094470;28;20443;-77
2023/05/27 12:20:27;;;;;;;;;;;29.70;68.70;;;;;;5098074;28;19966;-77
2023/05/27 12:22:55;;;;;;;;;;;29.80;68.70;;;;;;5097871;28;19958;-77
2023/05/27 12:25:21;;;;;;;;;;;30.00;69.20;;;;;;5097649;28;19923;-77
2023/05/27 12:27:47;;;;;;;;;;;30.40;69.80;;;;;;5098876;28;19925;-76
2023/05/27 12:30:13;;;;;;;;;;;30.80;69.40;;;;;;5098671;28;19924;-77
2023/05/27 12:32:38;;;;;;;;;;;31.40;69.60;;;;;;5086628;28;19966;-77
2023/05/27 12:35:04;;;;;;;;;;;32.20;69.60;;;;;;5087554;28;19917;-79
2023/05/27 12:37:30;;;;;;;;;;;32.90;69.00;;;;;;5087160;28;19916;-76
2023/05/27 12:39:56;;;;;;;;;;;33.20;69.00;;;;;;5087822;28;19919;-75
2023/05/27 12:42:22;;;;;;;;;;;33.60;68.50;;;;;;5087910;28;20030;-78
2023/05/27 12:44:48;;;;;;;;;;;33.50;68.40;;;;;;5086271;28;19986;-77
2023/05/27 12:47:13;;;;;;;;;;;33.40;68.30;;;;;;5088145;28;19916;-77
2023/05/27 12:49:39;;;;;;;;;;;33.30;68.80;;;;;;5088203;28;19915;-76
2023/05/27 12:52:05;;;;;;;;;;;33.60;69.20;;;;;;5088014;28;19912;-76
2023/05/27 12:54:30;;;;;;;;;;;34.10;69.50;;;;;;5090656;28;20313;-77
2023/05/27 12:56:56;;;;;;;;;;;34.80;69.50;;;;;;5091330;28;19916;-78
2023/05/27 12:59:21;;;;;;;;;;;35.30;69.30;;;;;;5091235;28;19913;-77
2023/05/27 13:01:47;;;;;;;;;;;35.90;69.20;;;;;;5089783;28;20031;-77
2023/05/27 13:04:12;;;;;;;;;;;36.30;68.60;;;;;;5090934;28;19912;-76
2023/05/27 13:06:38;;;;;;;;;;;36.20;67.80;;;;;;5091021;28;19912;-74
2023/05/27 13:09:04;;;;;;;;;;;35.70;67.30;;;;;;5091007;28;19916;-75
2023/05/27 13:11:30;;;;;;;;;;;35.50;67.50;;;;;;5091154;28;19969;-73
2023/05/27 13:13:55;;;;;;;;;;;35.50;67.90;;;;;;5090706;28;19920;-71
2023/05/27 13:16:21;;;;;;;;;;;35.30;67.60;;;;;;5089348;28;19916;-79
2023/05/27 13:18:46;;;;;;;;;;;34.60;66.90;;;;;;5091081;28;20310;-76
2023/05/27 13:21:12;;;;;;;;;;;33.50;66.70;;;;;;5090570;28;19977;-73
2023/05/27 13:23:38;;;;;;;;;;;32.30;67.40;;;;;;5090274;28;19956;-74
2023/05/27 13:26:05;;;;;;;;;;;31.50;68.10;;;;;;5090802;28;19908;-75
2023/05/27 13:28:30;;;;;;;;;;;31.00;68.20;;;;;;5090471;28;20376;-76
2023/05/27 13:30:56;;;;;;;;;;;30.60;68.30;;;;;;5090449;28;19922;-77
2023/05/27 13:33:22;;;;;;;;;;;30.50;68.50;;;;;;5089612;28;19918;-76
2023/05/27 13:35:47;;;;;;;;;;;30.20;68.00;;;;;;5089810;28;19974;-77
2023/05/27 13:38:14;;;;;;;;;;;29.80;68.00;;;;;;5089646;28;19955;-76
2023/05/27 13:40:40;;;;;;;;;;;29.50;68.00;;;;;;5090760;28;20608;-75
2023/05/27 13:43:06;;;;;;;;;;;29.40;67.80;;;;;;5093815;28;20011;-75
2023/05/27 13:45:32;;;;;;;;;;;29.30;67.40;;;;;;5101100;28;20026;-76
2023/05/27 13:47:57;;;;;;;;;;;29.10;67.20;;;;;;5088753;28;20313;-70
2023/05/27 13:50:23;;;;;;;;;;;29.00;67.40;;;;;;5089873;28;19995;-76
2023/05/27 13:52:49;;;;;;;;;;;29.00;67.40;;;;;;5089484;28;19916;-76
2023/05/27 13:55:14;;;;;;;;;;;29.20;67.10;;;;;;5088523;28;19920;-75
2023/05/27 13:57:40;;;;;;;;;;;29.30;66.60;;;;;;5089735;28;20429;-76
2023/05/27 14:00:06;;;;;;;;;;;29.10;66.40;;;;;;5089551;28;19908;-75
2023/05/27 14:02:32;;;;;;;;;;;28.80;66.50;;;;;;5088234;28;19967;-76
2023/05/27 14:04:58;;;;;;;;;;;28.60;66.60;;;;;;5086954;28;19962;-76
2023/05/27 14:07:23;;;;;;;;;;;28.40;66.70;;;;;;5090326;28;19912;-76
2023/05/27 14:09:49;;;;;;;;;;;28.30;66.90;;;;;;5089568;28;19916;-74
2023/05/27 14:12:15;;;;;;;;;;;28.30;67.10;;;;;;5088188;28;20271;-76